Time;durP1;ratioP1;P1;durP2;ratioP2;P2;SDS_P1;SDS_P2;PMS_P1;PMS_P2;Temp;Humidity;BMP_temperature;BMP_pressure;BME280_temperature;BME280_humidity;BME280_pressure;Samples;Min_cycle;Max_cycle;Signal;HPM_P1;HPM_P2
2022/01/21 00:01:34;;;;;;;;;;;;;;;;;;2189645;59;61952;-69
2022/01/21 00:04:08;;;;;;;;;;;;;;;;;;2191879;59;17122;-69
2022/01/21 00:06:44;;;;;;;;;;;;;;;;;;2192159;64;22032;-69
2022/01/21 00:09:17;;;;;;;;;;;;;;;;;;2189453;59;89022;-69
2022/01/21 00:11:50;;;;;;;;;;;;;;;;;;2189891;65;29741;-69
2022/01/21 00:14:24;;;;;;;;;;;;;;;;;;2191706;59;52548;-69
2022/01/21 00:16:58;;;;;;;;;;;;;;;;;;2193940;59;55367;-69
2022/01/21 00:19:37;;;;;;;;;;;;;;;;;;2191621;64;78451;-69
2022/01/21 00:30:40;;;;;;;;;;;;;;;;;;2193470;59;37671;-69
2022/01/21 00:33:13;;;;;;;;;;;;;;;;;;2191993;59;17043;-69
2022/01/21 00:35:46;;;;;;;;;;;;;;;;;;2192160;59;50854;-69
2022/01/21 00:38:25;;;;;;;;;;;;;;;;;;2193097;67;35219;-69
2022/01/21 00:41:04;;;;;;;;;;;;;;;;;;2192149;59;26698;-69
2022/01/21 00:43:44;;;;;;;;;;;;;;;;;;2191370;59;30723;-69
2022/01/21 00:46:19;;;;;;;;;;;;;;;;;;2192769;59;70278;-69
2022/01/21 00:48:52;;;;;;;;;;;;;;;;;;2193204;59;21555;-69
2022/01/21 00:51:25;;;;;;;;;;;;;;;;;;2190603;59;82681;-70
2022/01/21 00:54:02;;;;;;;;;;;;;;;;;;2191591;59;202274;-69
2022/01/21 00:56:35;;;;;;;;;;;;;;;;;;2193819;59;19707;-69
2022/01/21 00:59:09;;;;;;;;;;;;;;;;;;2193184;59;21284;-69
2022/01/21 01:01:42;;;;;;;;;;;;;;;;;;2192306;59;53103;-69
2022/01/21 01:04:16;;;;;;;;;;;;;;;;;;2191404;59;161851;-69
2022/01/21 01:06:49;;;;;;;;;;;;;;;;;;2193316;59;14109;-69
2022/01/21 01:09:25;;;;;;;;;;;;;;;;;;2193634;59;25769;-69
2022/01/21 01:12:14;;;;;;;;;;;;;;;;;;2192591;59;24402;-69
2022/01/21 01:20:26;;;;;;;;;;;;;;;;;;2194214;59;30723;-69
2022/01/21 01:23:06;;;;;;;;;;;;;;;;;;2192056;59;63032;-69
2022/01/21 01:28:32;;;;;;;;;;;;;;;;;;2192883;59;82358;-69
2022/01/21 01:31:05;;;;;;;;;;;;;;;;;;2191735;59;18849;-68
2022/01/21 01:33:40;;;;;;;;;;;;;;;;;;2191618;59;35809;-69
2022/01/21 01:36:13;;;;;;;;;;;;;;;;;;2193320;59;15180;-68
2022/01/21 01:39:06;;;;;;;;;;;;;;;;;;2192047;59;18951;-69
2022/01/21 01:41:48;;;;;;;;;;;;;;;;;;2206478;67;16803;-69
2022/01/21 01:49:59;;;;;;;;;;;;;;;;;;2207135;59;19003;-68
2022/01/21 01:52:33;;;;;;;;;;;;;;;;;;2208547;59;17757;-68
2022/01/21 01:55:07;;;;;;;;;;;;;;;;;;2207859;59;20652;-69
2022/01/21 01:57:43;;;;;;;;;;;;;;;;;;2206776;59;22815;-68
2022/01/21 02:00:17;;;;;;;;;;;;;;;;;;2209121;59;13005;-69
2022/01/21 02:02:50;;;;;;;;;;;;;;;;;;2208282;59;16540;-69
2022/01/21 02:05:23;;;;;;;;;;;;;;;;;;2206931;59;40477;-69
2022/01/21 02:07:56;;;;;;;;;;;;;;;;;;2207727;59;15104;-68
2022/01/21 02:10:29;;;;;;;;;;;;;;;;;;2207656;59;17821;-68
2022/01/21 02:13:17;;;;;;;;;;;;;;;;;;2207520;67;13881;-68
2022/01/21 02:16:01;;;;;;;;;;;;;;;;;;2207187;59;17344;-68
2022/01/21 02:21:41;;;;;;;;;;;;;;;;;;2207931;59;22041;-69
2022/01/21 02:24:17;;;;;;;;;;;;;;;;;;2208436;59;16393;-69
2022/01/21 02:26:52;;;;;;;;;;;;;;;;;;2206764;67;21296;-68
2022/01/21 02:29:32;;;;;;;;;;;;;;;;;;2207959;59;19275;-69
2022/01/21 02:32:05;;;;;;;;;;;;;;;;;;2208145;59;15015;-69
2022/01/21 02:34:38;;;;;;;;;;;;;;;;;;2207774;59;36767;-69
2022/01/21 02:37:15;;;;;;;;;;;;;;;;;;2208157;59;21694;-69
2022/01/21 02:39:49;;;;;;;;;;;;;;;;;;2207066;59;21138;-68
2022/01/21 02:42:22;;;;;;;;;;;;;;;;;;2208592;59;27196;-69
2022/01/21 02:44:55;;;;;;;;;;;;;;;;;;2208187;67;18691;-68
2022/01/21 02:47:28;;;;;;;;;;;;;;;;;;2207565;59;19673;-69
2022/01/21 02:50:01;;;;;;;;;;;;;;;;;;2208128;59;20981;-68
2022/01/21 02:52:54;;;;;;;;;;;;;;;;;;2208208;59;29770;-69
2022/01/21 02:55:27;;;;;;;;;;;;;;;;;;2207978;59;19117;-70
2022/01/21 02:58:01;;;;;;;;;;;;;;;;;;2209407;59;16807;-69
2022/01/21 03:00:34;;;;;;;;;;;;;;;;;;2208349;59;16813;-68
2022/01/21 03:03:07;;;;;;;;;;;;;;;;;;2208533;63;16641;-68
2022/01/21 03:05:40;;;;;;;;;;;;;;;;;;2206825;59;16527;-68
2022/01/21 03:08:17;;;;;;;;;;;;;;;;;;2208974;59;25313;-68
2022/01/21 03:10:50;;;;;;;;;;;;;;;;;;2207302;59;17624;-69
2022/01/21 03:13:23;;;;;;;;;;;;;;;;;;2207520;59;22699;-68
2022/01/21 03:15:57;;;;;;;;;;;;;;;;;;2209113;63;20656;-68
2022/01/21 03:18:30;;;;;;;;;;;;;;;;;;2207353;59;27682;-69
2022/01/21 03:21:03;;;;;;;;;;;;;;;;;;2207782;63;17839;-69
2022/01/21 03:23:39;;;;;;;;;;;;;;;;;;2207250;59;22421;-69
2022/01/21 03:26:14;;;;;;;;;;;;;;;;;;2207215;59;19492;-68
2022/01/21 03:28:48;;;;;;;;;;;;;;;;;;2207352;59;15665;-68
2022/01/21 03:31:22;;;;;;;;;;;;;;;;;;2206866;59;15239;-73
2022/01/21 03:33:59;;;;;;;;;;;;;;;;;;2208557;63;14416;-68
2022/01/21 03:36:32;;;;;;;;;;;;;;;;;;2208986;59;18211;-68
2022/01/21 03:39:08;;;;;;;;;;;;;;;;;;2207432;59;14167;-69
2022/01/21 03:41:41;;;;;;;;;;;;;;;;;;2207724;59;25027;-68
2022/01/21 03:44:14;;;;;;;;;;;;;;;;;;2208246;59;23268;-68
2022/01/21 03:46:48;;;;;;;;;;;;;;;;;;2207428;59;69397;-68
2022/01/21 03:49:21;;;;;;;;;;;;;;;;;;2206375;59;17572;-69
2022/01/21 03:51:54;;;;;;;;;;;;;;;;;;2207346;59;15709;-68
2022/01/21 03:54:30;;;;;;;;;;;;;;;;;;2208450;59;15639;-68
2022/01/21 03:57:03;;;;;;;;;;;;;;;;;;2208689;59;19772;-69
2022/01/21 03:59:36;;;;;;;;;;;;;;;;;;2207774;59;25962;-69
2022/01/21 04:02:09;;;;;;;;;;;;;;;;;;2208323;59;18853;-69
2022/01/21 04:04:42;;;;;;;;;;;;;;;;;;2208073;59;17213;-68
2022/01/21 04:07:15;;;;;;;;;;;;;;;;;;2207927;67;18582;-68
2022/01/21 04:09:51;;;;;;;;;;;;;;;;;;2206593;59;24124;-68
2022/01/21 04:12:24;;;;;;;;;;;;;;;;;;2208040;59;31221;-68
2022/01/21 04:14:59;;;;;;;;;;;;;;;;;;2208313;63;48738;-68
2022/01/21 04:17:32;;;;;;;;;;;;;;;;;;2208008;63;25564;-68
2022/01/21 04:20:05;;;;;;;;;;;;;;;;;;2208826;59;23792;-68
2022/01/21 04:22:39;;;;;;;;;;;;;;;;;;2208992;59;18262;-68
2022/01/21 04:25:15;;;;;;;;;;;;;;;;;;2207743;59;20575;-68
2022/01/21 04:27:48;;;;;;;;;;;;;;;;;;2206680;59;18164;-68
2022/01/21 04:30:21;;;;;;;;;;;;;;;;;;2207720;59;14370;-68
2022/01/21 04:32:54;;;;;;;;;;;;;;;;;;2207110;59;21231;-68
2022/01/21 04:35:27;;;;;;;;;;;;;;;;;;2207951;59;27738;-69
2022/01/21 04:38:06;;;;;;;;;;;;;;;;;;2209398;67;14540;-69
2022/01/21 04:40:48;;;;;;;;;;;;;;;;;;2209059;59;20972;-69
2022/01/21 04:48:59;;;;;;;;;;;;;;;;;;2208887;59;14707;-68
2022/01/21 04:51:39;;;;;;;;;;;;;;;;;;2206719;59;17434;-68
2022/01/21 04:54:12;;;;;;;;;;;;;;;;;;2211227;59;28611;-68
2022/01/21 04:56:48;;;;;;;;;;;;;;;;;;2209533;59;14503;-68
2022/01/21 04:59:21;;;;;;;;;;;;;;;;;;2208915;59;14815;-68
2022/01/21 05:01:54;;;;;;;;;;;;;;;;;;2208585;59;22148;-68
2022/01/21 05:04:28;;;;;;;;;;;;;;;;;;2208590;59;13795;-68
2022/01/21 05:07:03;;;;;;;;;;;;;;;;;;2208495;67;20453;-68
2022/01/21 05:09:36;;;;;;;;;;;;;;;;;;2207508;59;18236;-68
2022/01/21 05:12:18;;;;;;;;;;;;;;;;;;2203613;59;24273;-68
2022/01/21 05:15:06;;;;;;;;;;;;;;;;;;2193778;67;19315;-68
2022/01/21 05:17:45;;;;;;;;;;;;;;;;;;2189855;59;30972;-68
2022/01/21 05:20:18;;;;;;;;;;;;;;;;;;2192019;67;14980;-68
2022/01/21 05:22:52;;;;;;;;;;;;;;;;;;2192634;59;33276;-68
2022/01/21 05:25:25;;;;;;;;;;;;;;;;;;2191939;59;21096;-68
2022/01/21 05:28:01;;;;;;;;;;;;;;;;;;2192319;59;16015;-67
2022/01/21 05:30:34;;;;;;;;;;;;;;;;;;2193514;59;16017;-68
2022/01/21 05:33:07;;;;;;;;;;;;;;;;;;2202777;59;15483;-68
2022/01/21 05:35:40;;;;;;;;;;;;;;;;;;2208154;59;15699;-68
2022/01/21 05:38:13;;;;;;;;;;;;;;;;;;2208424;59;22315;-68
2022/01/21 05:40:47;;;;;;;;;;;;;;;;;;2208495;59;15690;-68
2022/01/21 05:43:22;;;;;;;;;;;;;;;;;;2196492;67;19438;-68
2022/01/21 05:48:45;;;;;;;;;;;;;;;;;;2208911;59;23081;-68
2022/01/21 05:51:18;;;;;;;;;;;;;;;;;;2207729;59;29169;-68
2022/01/21 05:53:52;;;;;;;;;;;;;;;;;;2208404;67;15441;-68
2022/01/21 05:56:26;;;;;;;;;;;;;;;;;;2208981;59;26923;-68
2022/01/21 05:59:02;;;;;;;;;;;;;;;;;;2207501;59;12789;-68
2022/01/21 06:01:36;;;;;;;;;;;;;;;;;;2207875;59;26080;-68
2022/01/21 06:04:09;;;;;;;;;;;;;;;;;;2208843;59;15131;-68
2022/01/21 06:06:42;;;;;;;;;;;;;;;;;;2208553;59;14121;-68
2022/01/21 06:09:16;;;;;;;;;;;;;;;;;;2208084;59;19606;-67
2022/01/21 06:11:50;;;;;;;;;;;;;;;;;;2205067;67;26873;-68
2022/01/21 06:14:26;;;;;;;;;;;;;;;;;;2194074;59;17683;-68
2022/01/21 06:17:00;;;;;;;;;;;;;;;;;;2192811;64;15962;-68
2022/01/21 06:19:33;;;;;;;;;;;;;;;;;;2193635;59;23852;-67
2022/01/21 06:22:06;;;;;;;;;;;;;;;;;;2208227;59;25052;-68
2022/01/21 06:24:39;;;;;;;;;;;;;;;;;;2200257;59;16806;-68
2022/01/21 06:27:12;;;;;;;;;;;;;;;;;;2194532;59;32609;-67
2022/01/21 06:29:48;;;;;;;;;;;;;;;;;;2192679;59;25324;-68
2022/01/21 06:32:21;;;;;;;;;;;;;;;;;;2194201;59;17409;-68
2022/01/21 06:34:54;;;;;;;;;;;;;;;;;;2190277;59;18046;-68
2022/01/21 06:37:28;;;;;;;;;;;;;;;;;;2192620;59;23201;-68
2022/01/21 06:40:01;;;;;;;;;;;;;;;;;;2194122;59;18069;-68
2022/01/21 06:42:34;;;;;;;;;;;;;;;;;;2197058;59;19983;-68
2022/01/21 06:45:10;;;;;;;;;;;;;;;;;;2192671;59;21026;-68
2022/01/21 06:47:44;;;;;;;;;;;;;;;;;;2193005;59;14761;-68
2022/01/21 06:50:17;;;;;;;;;;;;;;;;;;2199096;59;12711;-68
2022/01/21 06:52:50;;;;;;;;;;;;;;;;;;2208512;59;17099;-68
2022/01/21 06:55:23;;;;;;;;;;;;;;;;;;2207865;59;32521;-68
2022/01/21 06:57:57;;;;;;;;;;;;;;;;;;2209564;67;14112;-68
2022/01/21 07:00:32;;;;;;;;;;;;;;;;;;2208697;59;19684;-67
2022/01/21 07:03:06;;;;;;;;;;;;;;;;;;2208066;59;32191;-68
2022/01/21 07:05:39;;;;;;;;;;;;;;;;;;2208064;59;23629;-67
2022/01/21 07:08:14;;;;;;;;;;;;;;;;;;2208862;59;20493;-68
2022/01/21 07:10:47;;;;;;;;;;;;;;;;;;2207912;59;17259;-68
2022/01/21 07:13:20;;;;;;;;;;;;;;;;;;2207972;59;28521;-68
2022/01/21 07:15:58;;;;;;;;;;;;;;;;;;2207835;59;24506;-68
2022/01/21 07:18:31;;;;;;;;;;;;;;;;;;2208415;67;22101;-68
2022/01/21 07:21:04;;;;;;;;;;;;;;;;;;2209067;59;14996;-68
2022/01/21 07:23:37;;;;;;;;;;;;;;;;;;2207488;59;15212;-68
2022/01/21 07:26:12;;;;;;;;;;;;;;;;;;2209218;67;21225;-68
2022/01/21 07:28:45;;;;;;;;;;;;;;;;;;2207554;59;18752;-72
2022/01/21 07:31:21;;;;;;;;;;;;;;;;;;2196639;59;22319;-72
2022/01/21 07:33:55;;;;;;;;;;;;;;;;;;2200514;59;17063;-71
2022/01/21 07:36:28;;;;;;;;;;;;;;;;;;2205076;59;20234;-71
2022/01/21 07:39:01;;;;;;;;;;;;;;;;;;2198826;59;15367;-71
2022/01/21 07:41:34;;;;;;;;;;;;;;;;;;2189045;67;23432;-71
2022/01/21 07:44:07;;;;;;;;;;;;;;;;;;2194722;59;15599;-71
2022/01/21 07:46:44;;;;;;;;;;;;;;;;;;2196133;59;22089;-71
2022/01/21 07:49:18;;;;;;;;;;;;;;;;;;2197055;59;17607;-71
2022/01/21 07:51:51;;;;;;;;;;;;;;;;;;2202273;59;17121;-71
2022/01/21 07:54:24;;;;;;;;;;;;;;;;;;2195682;59;19994;-71
2022/01/21 07:56:57;;;;;;;;;;;;;;;;;;2198385;59;21238;-71
2022/01/21 07:59:30;;;;;;;;;;;;;;;;;;2200184;58;22091;-71
2022/01/21 08:02:07;;;;;;;;;;;;;;;;;;2197355;59;23903;-71
2022/01/21 08:04:40;;;;;;;;;;;;;;;;;;2196521;59;16905;-71
2022/01/21 08:07:13;;;;;;;;;;;;;;;;;;2202197;59;25715;-71
2022/01/21 08:09:48;;;;;;;;;;;;;;;;;;2197473;59;19676;-71
2022/01/21 08:12:22;;;;;;;;;;;;;;;;;;2195863;59;19566;-71
2022/01/21 08:14:55;;;;;;;;;;;;;;;;;;2198292;59;18253;-71
2022/01/21 08:17:32;;;;;;;;;;;;;;;;;;2198895;58;23299;-71
2022/01/21 08:20:05;;;;;;;;;;;;;;;;;;2196757;63;23453;-71
2022/01/21 08:22:39;;;;;;;;;;;;;;;;;;2196938;67;27220;-71
2022/01/21 08:25:12;;;;;;;;;;;;;;;;;;2197605;59;14599;-71
2022/01/21 08:27:46;;;;;;;;;;;;;;;;;;2202562;59;21448;-71
2022/01/21 08:30:19;;;;;;;;;;;;;;;;;;2198169;59;20984;-71
2022/01/21 08:32:55;;;;;;;;;;;;;;;;;;2199762;59;28370;-71
2022/01/21 08:35:28;;;;;;;;;;;;;;;;;;2195269;59;17592;-71
2022/01/21 08:38:02;;;;;;;;;;;;;;;;;;2198289;67;15096;-71
2022/01/21 08:40:35;;;;;;;;;;;;;;;;;;2198617;59;15465;-71
2022/01/21 08:43:08;;;;;;;;;;;;;;;;;;2196439;59;20444;-71
2022/01/21 08:45:41;;;;;;;;;;;;;;;;;;2197776;59;21660;-71
2022/01/21 08:48:17;;;;;;;;;;;;;;;;;;2202281;59;26839;-71
2022/01/21 08:50:51;;;;;;;;;;;;;;;;;;2199769;59;15785;-71
2022/01/21 08:53:41;;;;;;;;;;;;;;;;;;2199715;59;15818;-72
2022/01/21 08:56:15;;;;;;;;;;;;;;;;;;2195848;59;21149;-71
2022/01/21 08:58:49;;;;;;;;;;;;;;;;;;2197578;59;23478;-71
2022/01/21 09:01:22;;;;;;;;;;;;;;;;;;2197192;59;26783;-71
2022/01/21 09:03:59;;;;;;;;;;;;;;;;;;2195806;67;29992;-71
2022/01/21 09:06:32;;;;;;;;;;;;;;;;;;2195414;64;16753;-71
2022/01/21 09:09:06;;;;;;;;;;;;;;;;;;2194665;59;16357;-70
2022/01/21 09:11:39;;;;;;;;;;;;;;;;;;2197604;64;19719;-71
2022/01/21 09:14:12;;;;;;;;;;;;;;;;;;2195357;59;15504;-71
2022/01/21 09:16:45;;;;;;;;;;;;;;;;;;2195367;67;26098;-71
2022/01/21 09:19:21;;;;;;;;;;;;;;;;;;2194120;59;30311;-71
2022/01/21 09:21:55;;;;;;;;;;;;;;;;;;2193861;67;16429;-71
2022/01/21 09:24:28;;;;;;;;;;;;;;;;;;2194726;64;19082;-71
2022/01/21 09:27:02;;;;;;;;;;;;;;;;;;2194601;59;17607;-71
2022/01/21 09:29:36;;;;;;;;;;;;;;;;;;2194098;59;15638;-71
2022/01/21 09:32:09;;;;;;;;;;;;;;;;;;2200320;59;15781;-71
2022/01/21 09:34:46;;;;;;;;;;;;;;;;;;2198647;59;23375;-71
2022/01/21 09:37:19;;;;;;;;;;;;;;;;;;2193179;59;17406;-71
2022/01/21 09:39:53;;;;;;;;;;;;;;;;;;2198104;64;16259;-71
2022/01/21 09:42:26;;;;;;;;;;;;;;;;;;2200637;67;20920;-71
2022/01/21 09:45:00;;;;;;;;;;;;;;;;;;2197525;59;19836;-70
2022/01/21 09:47:44;;;;;;;;;;;;;;;;;;2206178;59;24162;-71
2022/01/21 09:50:21;;;;;;;;;;;;;;;;;;2200129;59;26601;-71
2022/01/21 09:52:55;;;;;;;;;;;;;;;;;;2197512;59;14790;-71
2022/01/21 09:55:28;;;;;;;;;;;;;;;;;;2199066;60;18701;-71
2022/01/21 09:58:01;;;;;;;;;;;;;;;;;;2201370;59;15505;-71
2022/01/21 10:00:34;;;;;;;;;;;;;;;;;;2206147;59;18819;-71
2022/01/21 10:03:08;;;;;;;;;;;;;;;;;;2204039;59;15105;-71
2022/01/21 10:05:46;;;;;;;;;;;;;;;;;;2200752;59;23698;-71
2022/01/21 10:08:19;;;;;;;;;;;;;;;;;;2205202;59;18680;-71
2022/01/21 10:10:53;;;;;;;;;;;;;;;;;;2198003;59;17781;-71
2022/01/21 10:13:28;;;;;;;;;;;;;;;;;;2194272;59;17469;-71
2022/01/21 10:16:01;;;;;;;;;;;;;;;;;;2198783;59;16041;-71
2022/01/21 10:18:34;;;;;;;;;;;;;;;;;;2204642;59;16552;-71
2022/01/21 10:21:12;;;;;;;;;;;;;;;;;;2200810;59;16025;-71
2022/01/21 10:23:47;;;;;;;;;;;;;;;;;;2206319;59;32386;-71
2022/01/21 10:26:23;;;;;;;;;;;;;;;;;;2203976;59;16974;-71
2022/01/21 10:28:57;;;;;;;;;;;;;;;;;;2207500;59;22689;-71
2022/01/21 10:31:30;;;;;;;;;;;;;;;;;;2204589;59;23904;-71
2022/01/21 10:34:05;;;;;;;;;;;;;;;;;;2201399;59;14003;-71
2022/01/21 10:36:46;;;;;;;;;;;;;;;;;;2200707;64;18410;-71
2022/01/21 10:39:29;;;;;;;;;;;;;;;;;;2199536;67;16774;-71
2022/01/21 10:42:02;;;;;;;;;;;;;;;;;;2200288;59;17118;-71
2022/01/21 10:44:36;;;;;;;;;;;;;;;;;;2206014;59;14700;-72
2022/01/21 10:47:10;;;;;;;;;;;;;;;;;;2198486;59;14665;-72
2022/01/21 10:49:43;;;;;;;;;;;;;;;;;;2201402;59;16839;-71
2022/01/21 10:52:31;;;;;;;;;;;;;;;;;;2203999;59;16924;-71
2022/01/21 10:55:06;;;;;;;;;;;;;;;;;;2198765;59;20137;-72
2022/01/21 10:57:39;;;;;;;;;;;;;;;;;;2199233;59;33741;-71
2022/01/21 11:00:12;;;;;;;;;;;;;;;;;;2205742;59;17719;-69
2022/01/21 11:02:49;;;;;;;;;;;;;;;;;;2203276;67;18725;-69
2022/01/21 11:05:30;;;;;;;;;;;;;;;;;;2196171;63;16398;-70
2022/01/21 11:08:08;;;;;;;;;;;;;;;;;;2196282;67;16751;-69
2022/01/21 11:10:45;;;;;;;;;;;;;;;;;;2199923;59;13596;-69
2022/01/21 11:13:29;;;;;;;;;;;;;;;;;;2205503;58;27630;-69
2022/01/21 11:16:08;;;;;;;;;;;;;;;;;;2201285;67;23351;-69
2022/01/21 11:18:52;;;;;;;;;;;;;;;;;;2209440;59;14701;-69
2022/01/21 11:21:26;;;;;;;;;;;;;;;;;;2201270;59;19350;-70
2022/01/21 11:24:09;;;;;;;;;;;;;;;;;;2203207;67;13628;-69
2022/01/21 11:26:43;;;;;;;;;;;;;;;;;;2195547;59;16151;-69
2022/01/21 11:29:17;;;;;;;;;;;;;;;;;;2202634;59;28062;-69
2022/01/21 11:31:50;;;;;;;;;;;;;;;;;;2201345;59;20422;-69
2022/01/21 11:34:23;;;;;;;;;;;;;;;;;;2199029;59;16618;-70
2022/01/21 11:36:57;;;;;;;;;;;;;;;;;;2200322;59;15192;-70
2022/01/21 11:39:33;;;;;;;;;;;;;;;;;;2191327;59;23856;-70
2022/01/21 11:42:07;;;;;;;;;;;;;;;;;;2197460;59;16045;-69
2022/01/21 11:44:47;;;;;;;;;;;;;;;;;;2195942;67;22999;-70
2022/01/21 11:47:48;;;;;;;;;;;;;;;;;;2195507;59;15081;-69
2022/01/21 11:50:21;;;;;;;;;;;;;;;;;;2194578;59;18504;-69
2022/01/21 11:52:55;;;;;;;;;;;;;;;;;;2199937;59;16381;-70
2022/01/21 11:55:36;;;;;;;;;;;;;;;;;;2192262;59;23144;-70
2022/01/21 11:58:14;;;;;;;;;;;;;;;;;;2195664;59;15109;-70
2022/01/21 12:00:47;;;;;;;;;;;;;;;;;;2199378;59;15985;-69
2022/01/21 12:03:23;;;;;;;;;;;;;;;;;;2200737;59;15940;-72
2022/01/21 12:05:56;;;;;;;;;;;;;;;;;;2197205;59;20573;-72
2022/01/21 12:08:48;;;;;;;;;;;;;;;;;;2194169;59;16825;-71
2022/01/21 12:11:38;;;;;;;;;;;;;;;;;;2200911;64;12700;-72
2022/01/21 12:14:29;;;;;;;;;;;;;;;;;;2195875;59;17195;-71
2022/01/21 12:17:15;;;;;;;;;;;;;;;;;;2199049;59;56521;-71
2022/01/21 12:19:49;;;;;;;;;;;;;;;;;;2200274;59;24407;-72
2022/01/21 12:22:22;;;;;;;;;;;;;;;;;;2198435;59;15906;-71
2022/01/21 12:24:57;;;;;;;;;;;;;;;;;;2198278;67;20981;-72
2022/01/21 12:27:33;;;;;;;;;;;;;;;;;;2198749;59;17313;-72
2022/01/21 12:30:26;;;;;;;;;;;;;;;;;;2197555;59;20456;-70
2022/01/21 12:33:04;;;;;;;;;;;;;;;;;;2206513;59;12766;-69
2022/01/21 12:35:37;;;;;;;;;;;;;;;;;;2202994;59;16916;-69
2022/01/21 12:41:05;;;;;;;;;;;;;;;;;;2198421;59;17264;-70
2022/01/21 12:43:46;;;;;;;;;;;;;;;;;;2195390;59;14350;-70
2022/01/21 12:46:20;;;;;;;;;;;;;;;;;;2204718;59;19116;-70
2022/01/21 12:48:54;;;;;;;;;;;;;;;;;;2199862;59;25684;-70
2022/01/21 12:51:56;;;;;;;;;;;;;;;;;;2201067;59;18042;-70
2022/01/21 12:57:17;;;;;;;;;;;;;;;;;;2194370;64;17192;-71
2022/01/21 12:59:56;;;;;;;;;;;;;;;;;;2200094;59;17945;-71
2022/01/21 13:02:33;;;;;;;;;;;;;;;;;;2207549;59;23128;-72
2022/01/21 13:05:11;;;;;;;;;;;;;;;;;;2196090;59;16090;-71
2022/01/21 13:07:51;;;;;;;;;;;;;;;;;;2199239;58;19499;-71
2022/01/21 13:10:26;;;;;;;;;;;;;;;;;;2200860;59;15171;-72
2022/01/21 13:13:15;;;;;;;;;;;;;;;;;;2200846;67;19415;-71
2022/01/21 13:15:52;;;;;;;;;;;;;;;;;;2197998;64;20455;-71
2022/01/21 13:18:28;;;;;;;;;;;;;;;;;;2197119;67;18219;-71
2022/01/21 13:21:01;;;;;;;;;;;;;;;;;;2194936;67;12965;-71
2022/01/21 13:23:39;;;;;;;;;;;;;;;;;;2197021;59;14472;-72
2022/01/21 13:26:13;;;;;;;;;;;;;;;;;;2209479;67;13701;-71
2022/01/21 13:28:57;;;;;;;;;;;;;;;;;;2201692;59;17084;-71
2022/01/21 13:31:33;;;;;;;;;;;;;;;;;;2202183;59;15293;-71
2022/01/21 13:34:08;;;;;;;;;;;;;;;;;;2199799;59;27081;-71
2022/01/21 13:36:42;;;;;;;;;;;;;;;;;;2197811;59;18133;-71
2022/01/21 13:39:17;;;;;;;;;;;;;;;;;;2201638;59;15615;-71
2022/01/21 13:41:51;;;;;;;;;;;;;;;;;;2209484;63;15666;-72
2022/01/21 13:44:31;;;;;;;;;;;;;;;;;;2198340;59;16975;-71
2022/01/21 13:47:08;;;;;;;;;;;;;;;;;;2206846;59;15851;-71
2022/01/21 13:49:41;;;;;;;;;;;;;;;;;;2199793;59;20601;-71
2022/01/21 13:52:14;;;;;;;;;;;;;;;;;;2195262;59;15450;-71
2022/01/21 13:54:48;;;;;;;;;;;;;;;;;;2202828;59;14545;-71
2022/01/21 13:57:28;;;;;;;;;;;;;;;;;;2195642;59;15622;-72
2022/01/21 14:00:01;;;;;;;;;;;;;;;;;;2196359;64;16090;-71
2022/01/21 14:02:37;;;;;;;;;;;;;;;;;;2194902;59;15688;-72
2022/01/21 14:05:10;;;;;;;;;;;;;;;;;;2198962;59;23162;-71
2022/01/21 14:07:43;;;;;;;;;;;;;;;;;;2197229;59;20305;-71
2022/01/21 14:10:17;;;;;;;;;;;;;;;;;;2199324;58;15011;-71
2022/01/21 14:12:50;;;;;;;;;;;;;;;;;;2199125;59;17768;-71
2022/01/21 14:15:23;;;;;;;;;;;;;;;;;;2197786;59;20464;-71
2022/01/21 14:17:59;;;;;;;;;;;;;;;;;;2200328;59;14785;-71
2022/01/21 14:20:33;;;;;;;;;;;;;;;;;;2205421;66;12597;-72
2022/01/21 14:23:06;;;;;;;;;;;;;;;;;;2200643;59;23969;-71
2022/01/21 14:25:39;;;;;;;;;;;;;;;;;;2201860;67;25501;-71
2022/01/21 14:28:12;;;;;;;;;;;;;;;;;;2196352;59;18998;-71
2022/01/21 14:30:45;;;;;;;;;;;;;;;;;;2199520;59;19919;-71
2022/01/21 14:33:21;;;;;;;;;;;;;;;;;;2197179;63;16788;-71
2022/01/21 14:35:54;;;;;;;;;;;;;;;;;;2195100;59;13499;-71
2022/01/21 14:38:27;;;;;;;;;;;;;;;;;;2202452;67;22054;-71
2022/01/21 14:41:01;;;;;;;;;;;;;;;;;;2201954;59;14707;-72
2022/01/21 14:43:34;;;;;;;;;;;;;;;;;;2197451;59;14858;-71
2022/01/21 14:46:08;;;;;;;;;;;;;;;;;;2197982;63;19058;-71
2022/01/21 14:48:44;;;;;;;;;;;;;;;;;;2201901;59;18609;-71
2022/01/21 14:51:19;;;;;;;;;;;;;;;;;;2198353;59;17179;-71
2022/01/21 14:53:55;;;;;;;;;;;;;;;;;;2200649;59;24723;-71
2022/01/21 14:56:28;;;;;;;;;;;;;;;;;;2197943;67;13163;-71
2022/01/21 14:59:08;;;;;;;;;;;;;;;;;;2199018;59;16859;-71
2022/01/21 15:01:56;;;;;;;;;;;;;;;;;;2198544;67;21031;-71
2022/01/21 15:04:35;;;;;;;;;;;;;;;;;;2196556;63;13004;-71
2022/01/21 15:07:09;;;;;;;;;;;;;;;;;;2199009;59;19224;-71
2022/01/21 15:09:48;;;;;;;;;;;;;;;;;;2197727;59;17838;-71
2022/01/21 15:15:35;;;;;;;;;;;;;;;;;;2195903;59;15384;-71
2022/01/21 15:18:08;;;;;;;;;;;;;;;;;;2196831;59;16046;-71
2022/01/21 15:20:44;;;;;;;;;;;;;;;;;;2198582;59;14700;-71
2022/01/21 15:23:18;;;;;;;;;;;;;;;;;;2197804;67;15600;-71
2022/01/21 15:25:51;;;;;;;;;;;;;;;;;;2200428;59;20126;-71
2022/01/21 15:28:24;;;;;;;;;;;;;;;;;;2198163;59;12424;-71
2022/01/21 15:30:57;;;;;;;;;;;;;;;;;;2202664;67;17249;-71
2022/01/21 15:33:31;;;;;;;;;;;;;;;;;;2197791;67;14952;-71
2022/01/21 15:36:07;;;;;;;;;;;;;;;;;;2196138;59;15689;-71
2022/01/21 15:38:40;;;;;;;;;;;;;;;;;;2201209;59;16734;-71
2022/01/21 15:41:13;;;;;;;;;;;;;;;;;;2205445;59;16539;-71
2022/01/21 15:43:46;;;;;;;;;;;;;;;;;;2202505;63;17866;-71
2022/01/21 15:46:20;;;;;;;;;;;;;;;;;;2204537;59;14632;-71
2022/01/21 15:48:53;;;;;;;;;;;;;;;;;;2206633;59;16509;-71
2022/01/21 15:51:29;;;;;;;;;;;;;;;;;;2199676;59;16182;-71
2022/01/21 15:54:02;;;;;;;;;;;;;;;;;;2206020;59;16141;-71
2022/01/21 15:56:35;;;;;;;;;;;;;;;;;;2204249;59;14992;-71
2022/01/21 15:59:09;;;;;;;;;;;;;;;;;;2201306;59;19112;-71
2022/01/21 16:01:42;;;;;;;;;;;;;;;;;;2198051;59;21631;-71
2022/01/21 16:04:15;;;;;;;;;;;;;;;;;;2199750;59;14343;-71
2022/01/21 16:06:51;;;;;;;;;;;;;;;;;;2200845;67;15602;-71
2022/01/21 16:09:24;;;;;;;;;;;;;;;;;;2196228;59;14865;-71
2022/01/21 16:11:57;;;;;;;;;;;;;;;;;;2201624;67;16537;-71
2022/01/21 16:14:31;;;;;;;;;;;;;;;;;;2197408;59;22148;-71
2022/01/21 16:17:04;;;;;;;;;;;;;;;;;;2201691;60;17868;-71
2022/01/21 16:19:38;;;;;;;;;;;;;;;;;;2205311;59;23645;-71
2022/01/21 16:22:14;;;;;;;;;;;;;;;;;;2205467;67;22520;-71
2022/01/21 16:24:47;;;;;;;;;;;;;;;;;;2207826;67;15737;-71
2022/01/21 16:27:20;;;;;;;;;;;;;;;;;;2200635;59;18834;-71
2022/01/21 16:29:53;;;;;;;;;;;;;;;;;;2199702;58;22440;-71
2022/01/21 16:32:26;;;;;;;;;;;;;;;;;;2201310;59;14917;-71
2022/01/21 16:35:00;;;;;;;;;;;;;;;;;;2201462;59;18242;-71
2022/01/21 16:37:37;;;;;;;;;;;;;;;;;;2196432;59;18263;-71
2022/01/21 16:40:13;;;;;;;;;;;;;;;;;;2201747;59;15956;-71
2022/01/21 16:42:46;;;;;;;;;;;;;;;;;;2208725;59;19317;-71
2022/01/21 16:45:21;;;;;;;;;;;;;;;;;;2208575;67;14997;-71
2022/01/21 16:47:55;;;;;;;;;;;;;;;;;;2202273;59;14857;-71
2022/01/21 16:50:28;;;;;;;;;;;;;;;;;;2197160;59;17337;-71
2022/01/21 16:53:05;;;;;;;;;;;;;;;;;;2205133;59;16480;-70
2022/01/21 16:55:38;;;;;;;;;;;;;;;;;;2207640;59;16340;-71
2022/01/21 16:58:11;;;;;;;;;;;;;;;;;;2202135;67;14051;-71
2022/01/21 17:00:44;;;;;;;;;;;;;;;;;;2202119;64;21594;-71
2022/01/21 17:03:18;;;;;;;;;;;;;;;;;;2197627;67;16075;-71
2022/01/21 17:05:54;;;;;;;;;;;;;;;;;;2196289;64;22615;-71
2022/01/21 17:08:30;;;;;;;;;;;;;;;;;;2194610;59;13366;-71
2022/01/21 17:11:03;;;;;;;;;;;;;;;;;;2204539;59;13537;-71
2022/01/21 17:13:37;;;;;;;;;;;;;;;;;;2198267;64;17155;-71
2022/01/21 17:16:10;;;;;;;;;;;;;;;;;;2196484;67;15482;-71
2022/01/21 17:18:43;;;;;;;;;;;;;;;;;;2197391;59;13729;-71
2022/01/21 17:21:16;;;;;;;;;;;;;;;;;;2193509;59;30799;-71
2022/01/21 17:23:52;;;;;;;;;;;;;;;;;;2193978;59;19925;-71
2022/01/21 17:26:25;;;;;;;;;;;;;;;;;;2194660;59;14463;-70
2022/01/21 17:28:58;;;;;;;;;;;;;;;;;;2195155;59;16414;-72
2022/01/21 17:31:31;;;;;;;;;;;;;;;;;;2199190;59;19524;-72
2022/01/21 17:34:04;;;;;;;;;;;;;;;;;;2197808;59;22622;-72
2022/01/21 17:36:37;;;;;;;;;;;;;;;;;;2203007;59;23865;-72
2022/01/21 17:39:13;;;;;;;;;;;;;;;;;;2199804;58;13059;-72
2022/01/21 17:41:46;;;;;;;;;;;;;;;;;;2205589;64;21755;-70
2022/01/21 17:44:21;;;;;;;;;;;;;;;;;;2206361;59;14553;-70
2022/01/21 17:46:54;;;;;;;;;;;;;;;;;;2200028;59;14079;-70
2022/01/21 17:49:27;;;;;;;;;;;;;;;;;;2203342;59;28342;-70
2022/01/21 17:52:00;;;;;;;;;;;;;;;;;;2200160;59;14245;-70
2022/01/21 17:54:36;;;;;;;;;;;;;;;;;;2199823;59;14853;-70
2022/01/21 17:57:09;;;;;;;;;;;;;;;;;;2196446;59;19736;-70
2022/01/21 17:59:43;;;;;;;;;;;;;;;;;;2200908;59;20942;-72
2022/01/21 18:02:16;;;;;;;;;;;;;;;;;;2205609;67;12524;-72
2022/01/21 18:04:50;;;;;;;;;;;;;;;;;;2194936;59;18069;-72
2022/01/21 18:07:23;;;;;;;;;;;;;;;;;;2198192;59;18244;-72
2022/01/21 18:10:08;;;;;;;;;;;;;;;;;;2197195;59;17784;-72
2022/01/21 18:12:41;;;;;;;;;;;;;;;;;;2198253;67;16359;-72
2022/01/21 18:15:14;;;;;;;;;;;;;;;;;;2197459;67;18404;-72
2022/01/21 18:17:48;;;;;;;;;;;;;;;;;;2195656;59;24498;-70
2022/01/21 18:20:21;;;;;;;;;;;;;;;;;;2195733;59;20206;-70
2022/01/21 18:22:54;;;;;;;;;;;;;;;;;;2198172;60;19151;-70